Flugplatz Wittmundhafen Airport

Bericht für ETNT

vom 23.01. um 16:20 UTC

Wind 7 kt aus 70°

Sichtweite 6000 m

aufgebrochene Bewölkung in 1000 ft

aufgebrochene Bewölkung in 14000 ft

Temperatur -4.0°C

Taupunkt -6.0°C

Luftfeuchtigkeit 86%

Luftdruck 1004 hPa

ETNT 231620Z 07007KT 6000 BKN010 BKN140 M04/M06 Q1004 BLACKGRN

Prognose für ETNT

vom 23.01. um 16:05 UTC

Zwischen 16:00 UTC und 00:00 UTC

Wind 7 kt aus 90°

Sichtweite 8000 m

keine signifikanten Wettererscheinungen

aufgelockert bewölkt in 1500 ft

aufgebrochene Bewölkung in 18000 ft


Zwischen 16:00 UTC und 00:00 UTC zeitweise

Wind 5 kt aus 100°

Sichtweite 4000 m

feuchter Dunst

aufgebrochene Bewölkung in 700 ft

aufgebrochene Bewölkung in 15000 ft

TAF AMD ETNT 231605Z 2316/2324 09007KT 8000 NSW SCT015 BKN180 TEMPO 2316/2324 10005KT 4000 BR BKN007 BKN150 CANCEL BY ETGL
Impressum